createdAt,value
2023-01-24T00:02:00.956Z,1.13
2023-01-24T00:04:28.959Z,1.12
2023-01-24T00:06:57.000Z,1.12
2023-01-24T00:09:30.190Z,1.12
2023-01-24T00:11:59.205Z,1.12
2023-01-24T00:14:27.422Z,1.12
2023-01-24T00:16:56.599Z,1.13
2023-01-24T00:19:28.339Z,1.12
2023-01-24T00:21:59.919Z,1.13
2023-01-24T00:24:36.042Z,1.12
2023-01-24T00:27:07.379Z,1.12
2023-01-24T00:29:35.797Z,1.13
2023-01-24T00:32:04.339Z,1.11
2023-01-24T00:34:32.504Z,1.13
2023-01-24T00:37:00.526Z,1.13
2023-01-24T00:39:28.943Z,1.14
2023-01-24T00:42:09.065Z,1.16
2023-01-24T00:44:38.054Z,1.17
2023-01-24T00:47:05.749Z,1.16
2023-01-24T00:49:34.851Z,1.17
2023-01-24T00:52:05.385Z,1.17
2023-01-24T00:54:33.689Z,1.17
2023-01-24T00:57:04.730Z,1.17
2023-01-24T00:59:32.619Z,1.17
2023-01-24T01:02:02.310Z,1.16
2023-01-24T01:04:32.167Z,1.15
2023-01-24T01:07:00.223Z,1.15
2023-01-24T01:09:29.550Z,1.16
2023-01-24T01:11:58.059Z,1.16
2023-01-24T01:14:26.219Z,1.15
2023-01-24T01:16:55.754Z,1.16
2023-01-24T01:19:23.972Z,1.16
2023-01-24T01:21:52.073Z,1.16
2023-01-24T01:24:24.249Z,1.16
2023-01-24T01:26:51.818Z,1.18
2023-01-24T01:29:22.725Z,1.18
2023-01-24T01:31:52.290Z,1.18
2023-01-24T01:34:21.075Z,1.18
2023-01-24T01:36:49.868Z,1.19
2023-01-24T01:39:18.095Z,1.18
2023-01-24T01:41:48.262Z,1.18
2023-01-24T01:44:40.945Z,1.18
2023-01-24T01:47:21.987Z,1.18
2023-01-24T01:49:59.388Z,1.18
2023-01-24T01:52:36.681Z,1.19
2023-01-24T01:55:08.949Z,1.21
2023-01-24T01:57:42.347Z,1.21
2023-01-24T02:00:16.483Z,1.21
2023-01-24T02:02:50.886Z,1.20
2023-01-24T02:05:23.383Z,1.20
2023-01-24T02:07:54.715Z,1.19
2023-01-24T02:10:54.179Z,1.20
2023-01-24T02:13:25.072Z,1.21
2023-01-24T02:16:06.418Z,1.21
2023-01-24T02:18:44.017Z,1.23
2023-01-24T02:21:15.588Z,1.24
2023-01-24T02:23:52.627Z,1.26
2023-01-24T02:26:24.216Z,1.27
2023-01-24T02:28:58.113Z,1.28
2023-01-24T02:31:27.949Z,1.29
2023-01-24T02:33:58.931Z,1.28
2023-01-24T02:36:32.163Z,1.30
2023-01-24T02:39:06.968Z,1.31
2023-01-24T02:41:45.628Z,1.32
2023-01-24T02:44:22.811Z,1.33
2023-01-24T02:46:50.872Z,1.34
2023-01-24T02:49:23.597Z,1.34
2023-01-24T02:52:10.727Z,1.35
2023-01-24T02:54:42.189Z,1.35
2023-01-24T02:57:39.746Z,1.36
2023-01-24T03:00:11.705Z,1.35
2023-01-24T03:02:40.712Z,1.36
2023-01-24T03:05:11.880Z,1.36
2023-01-24T03:07:44.890Z,1.36
2023-01-24T03:10:19.857Z,1.37
2023-01-24T03:13:09.752Z,1.37
2023-01-24T03:15:55.910Z,1.38
2023-01-24T03:18:41.927Z,1.38
2023-01-24T03:21:28.173Z,1.38
2023-01-24T03:24:14.119Z,1.38
2023-01-24T03:27:00.725Z,1.38
2023-01-24T03:29:46.717Z,1.36
2023-01-24T03:32:32.545Z,1.36
2023-01-24T03:35:00.998Z,1.36
2023-01-24T03:37:49.399Z,1.37
2023-01-24T03:40:19.262Z,1.38
2023-01-24T03:42:51.284Z,1.39
2023-01-24T03:45:31.284Z,1.41
2023-01-24T03:48:05.161Z,1.42
2023-01-24T03:50:54.592Z,1.44
2023-01-24T03:53:26.384Z,1.43
2023-01-24T03:55:58.288Z,1.44
2023-01-24T03:58:30.691Z,1.44
2023-01-24T04:00:58.958Z,1.44
2023-01-24T04:03:44.915Z,1.42
2023-01-24T04:06:14.432Z,1.42
2023-01-24T04:08:43.352Z,1.41
2023-01-24T04:11:10.997Z,1.42
2023-01-24T04:13:42.267Z,1.41
2023-01-24T04:16:13.011Z,1.39
2023-01-24T04:18:58.744Z,1.40
2023-01-24T04:21:28.524Z,1.40
2023-01-24T04:24:00.297Z,1.39
2023-01-24T04:26:29.216Z,1.39
2023-01-24T04:29:00.416Z,1.40
2023-01-24T04:31:28.511Z,1.40
2023-01-24T04:34:21.630Z,1.39
2023-01-24T04:36:51.139Z,1.37
2023-01-24T04:39:21.773Z,1.37
2023-01-24T04:42:02.843Z,1.38
2023-01-24T04:44:34.744Z,1.38
2023-01-24T04:47:03.329Z,1.38
2023-01-24T04:49:31.624Z,1.38
2023-01-24T04:51:59.495Z,1.39
2023-01-24T04:54:34.999Z,1.39
2023-01-24T04:57:14.090Z,1.39
2023-01-24T04:59:43.767Z,1.39
2023-01-24T05:02:13.870Z,1.38
2023-01-24T05:04:48.510Z,1.38
2023-01-24T05:07:18.357Z,1.38
2023-01-24T05:09:58.329Z,1.38
2023-01-24T05:12:26.795Z,1.39
2023-01-24T05:14:54.898Z,1.40
2023-01-24T05:17:24.207Z,1.41
2023-01-24T05:19:56.221Z,1.42
2023-01-24T05:22:24.151Z,1.42
2023-01-24T05:24:52.948Z,1.41
2023-01-24T05:27:28.613Z,1.40
2023-01-24T05:30:02.644Z,1.39
2023-01-24T05:32:31.444Z,1.39
2023-01-24T05:35:01.169Z,1.39
2023-01-24T05:37:31.444Z,1.37
2023-01-24T05:40:02.897Z,1.37
2023-01-24T05:42:35.773Z,1.36
2023-01-24T05:45:05.695Z,1.36
2023-01-24T05:47:37.162Z,1.36
2023-01-24T05:50:07.427Z,1.36
2023-01-24T05:52:39.414Z,1.37
2023-01-24T05:55:09.532Z,1.37
2023-01-24T05:57:44.773Z,1.38
2023-01-24T06:00:20.589Z,1.38
2023-01-24T06:03:09.555Z,1.39
2023-01-24T06:05:44.058Z,1.39
2023-01-24T06:08:18.674Z,1.38
2023-01-24T06:10:49.298Z,1.37
2023-01-24T06:13:18.517Z,1.37
2023-01-24T06:15:46.884Z,1.37
2023-01-24T06:18:18.929Z,1.37
2023-01-24T06:20:53.060Z,1.36
2023-01-24T06:23:26.839Z,1.35
2023-01-24T06:26:00.131Z,1.36
2023-01-24T06:28:29.632Z,1.35
2023-01-24T06:31:06.158Z,1.35
2023-01-24T06:33:41.818Z,1.35
2023-01-24T06:36:31.439Z,1.36
2023-01-24T06:39:00.158Z,1.36
2023-01-24T06:41:36.388Z,1.36
2023-01-24T06:44:05.736Z,1.36
2023-01-24T06:46:34.188Z,1.37
2023-01-24T06:49:04.847Z,1.37
2023-01-24T06:51:38.101Z,1.36
2023-01-24T06:54:06.775Z,1.36
2023-01-24T06:56:34.441Z,1.38
2023-01-24T06:59:02.819Z,1.41
2023-01-24T07:01:30.448Z,1.42
2023-01-24T07:03:58.079Z,1.44
2023-01-24T07:06:27.123Z,1.45
2023-01-24T07:08:54.772Z,1.46
2023-01-24T07:11:24.397Z,1.46
2023-01-24T07:13:51.977Z,1.47
2023-01-24T07:16:24.064Z,1.49
2023-01-24T07:18:52.759Z,1.48
2023-01-24T07:21:21.444Z,1.49
2023-01-24T07:23:50.383Z,1.49
2023-01-24T07:29:01.564Z,1.53
2023-01-24T07:31:36.695Z,1.54
2023-01-24T07:34:04.310Z,1.55
2023-01-24T07:36:34.369Z,1.56
2023-01-24T07:39:02.064Z,1.58
2023-01-24T07:41:29.728Z,1.60
2023-01-24T07:43:57.382Z,1.62
2023-01-24T07:46:25.469Z,1.63
2023-01-24T07:48:53.037Z,1.64
2023-01-24T07:51:20.599Z,1.66
2023-01-24T07:53:50.037Z,1.68
2023-01-24T07:56:25.718Z,1.69
2023-01-24T07:58:54.234Z,1.72
2023-01-24T08:01:23.680Z,1.73
2023-01-24T08:03:54.366Z,1.76
2023-01-24T08:06:22.049Z,1.78
2023-01-24T08:08:49.813Z,1.80
2023-01-24T08:11:17.911Z,1.80
2023-01-24T08:13:45.756Z,1.82
2023-01-24T08:16:13.802Z,1.82
2023-01-24T08:18:43.320Z,1.82
2023-01-24T08:21:12.377Z,1.83
2023-01-24T08:23:41.875Z,1.84
2023-01-24T08:26:10.072Z,1.87
2023-01-24T08:28:38.847Z,1.90
2023-01-24T08:31:06.482Z,1.93
2023-01-24T08:33:38.127Z,1.96
2023-01-24T08:36:07.626Z,1.98
2023-01-24T08:38:35.336Z,1.99
2023-01-24T08:41:07.655Z,2.01
2023-01-24T08:43:36.759Z,2.03
2023-01-24T08:46:04.812Z,2.06
2023-01-24T08:48:33.640Z,2.10
2023-01-24T08:51:04.508Z,2.12
2023-01-24T08:53:33.551Z,2.16
2023-01-24T08:56:02.458Z,2.18
2023-01-24T08:58:30.923Z,2.22
2023-01-24T09:00:58.606Z,2.23
2023-01-24T09:03:27.397Z,2.26
2023-01-24T09:05:58.229Z,2.30
2023-01-24T09:08:26.256Z,2.32
2023-01-24T09:10:54.206Z,2.32
2023-01-24T09:13:21.836Z,2.32
2023-01-24T09:15:49.492Z,2.35
2023-01-24T09:18:17.204Z,2.36
2023-01-24T09:20:44.809Z,2.40
2023-01-24T09:23:14.686Z,2.44
2023-01-24T09:25:49.983Z,2.48
2023-01-24T09:28:20.535Z,2.52
2023-01-24T09:30:50.672Z,2.56
2023-01-24T09:33:20.493Z,2.62
2023-01-24T09:35:55.470Z,2.65
2023-01-24T09:38:23.613Z,2.66
2023-01-24T09:40:57.903Z,2.65
2023-01-24T09:43:42.531Z,2.64
2023-01-24T09:46:21.353Z,2.65
2023-01-24T09:48:53.332Z,2.64
2023-01-24T09:51:26.241Z,2.65
2023-01-24T09:53:56.720Z,2.68
2023-01-24T09:56:30.892Z,2.70
2023-01-24T09:59:24.148Z,2.71
2023-01-24T10:01:53.001Z,2.75
2023-01-24T10:04:25.571Z,2.81
2023-01-24T10:07:13.343Z,2.86
2023-01-24T10:09:55.199Z,2.90
2023-01-24T10:12:37.548Z,2.95
2023-01-24T10:15:22.930Z,3.02
2023-01-24T10:18:15.449Z,3.08
2023-01-24T10:20:57.384Z,3.18
2023-01-24T10:23:27.622Z,3.27
2023-01-24T10:25:59.474Z,3.33
2023-01-24T10:28:33.202Z,3.40
2023-01-24T10:31:08.687Z,3.46
2023-01-24T10:33:44.770Z,3.54
2023-01-24T10:36:19.499Z,3.60
2023-01-24T10:38:48.041Z,3.61
2023-01-24T10:41:20.726Z,3.63
2023-01-24T10:43:55.787Z,3.67
2023-01-24T10:46:44.708Z,3.69
2023-01-24T10:49:20.864Z,3.70
2023-01-24T10:52:09.779Z,3.68
2023-01-24T10:54:44.701Z,3.68
2023-01-24T10:57:21.741Z,3.70
2023-01-24T10:59:48.632Z,3.72
2023-01-24T11:02:23.137Z,3.74
2023-01-24T11:05:02.267Z,3.74
2023-01-24T11:07:33.253Z,3.76
2023-01-24T11:10:02.280Z,3.79
2023-01-24T11:12:31.425Z,3.79
2023-01-24T11:15:00.749Z,3.80
2023-01-24T11:17:38.049Z,3.84
2023-01-24T11:20:23.463Z,3.88
2023-01-24T11:23:01.586Z,3.91
2023-01-24T11:25:29.406Z,3.91
2023-01-24T11:28:05.844Z,3.90
2023-01-24T11:30:39.845Z,3.89
2023-01-24T11:33:26.147Z,3.87
2023-01-24T11:35:57.745Z,3.84
2023-01-24T11:38:34.272Z,3.85
2023-01-24T11:41:14.026Z,3.85
2023-01-24T11:43:57.004Z,3.87
2023-01-24T11:46:42.167Z,3.87
2023-01-24T11:49:33.596Z,3.88
2023-01-24T11:52:28.213Z,3.91
2023-01-24T11:55:03.834Z,3.93
2023-01-24T11:57:44.744Z,3.98
2023-01-24T12:00:37.112Z,4.00
2023-01-24T12:03:33.036Z,4.00
2023-01-24T12:06:10.633Z,3.99
2023-01-24T12:09:02.983Z,3.97
2023-01-24T12:11:38.772Z,3.97
2023-01-24T12:14:31.879Z,3.92
2023-01-24T12:17:15.114Z,3.90
2023-01-24T12:20:05.485Z,3.89
2023-01-24T12:22:34.664Z,3.86
2023-01-24T12:25:24.026Z,3.84
2023-01-24T12:27:54.331Z,3.84
2023-01-24T12:30:30.455Z,3.86
2023-01-24T12:33:05.726Z,3.89
2023-01-24T12:35:37.227Z,3.91
2023-01-24T12:38:18.755Z,3.89
2023-01-24T12:40:57.136Z,3.86
2023-01-24T12:43:32.831Z,3.85
2023-01-24T12:46:10.201Z,3.82
2023-01-24T12:48:51.326Z,3.79
2023-01-24T12:51:26.213Z,3.80
2023-01-24T12:54:03.057Z,3.77
2023-01-24T12:56:40.797Z,3.72
2023-01-24T12:59:11.143Z,3.70
2023-01-24T13:02:11.985Z,3.68
2023-01-24T13:04:51.233Z,3.69
2023-01-24T13:07:33.435Z,3.68
2023-01-24T13:10:15.445Z,3.69
2023-01-24T13:12:46.771Z,3.64
2023-01-24T13:15:21.513Z,3.62
2023-01-24T13:18:21.294Z,3.61
2023-01-24T13:21:00.405Z,3.60
2023-01-24T13:23:47.296Z,3.56
2023-01-24T13:26:37.749Z,3.53
2023-01-24T13:29:25.308Z,3.53
2023-01-24T13:32:09.321Z,3.52
2023-01-24T13:34:44.908Z,3.53
2023-01-24T13:37:20.179Z,3.57
2023-01-24T13:39:52.232Z,3.58
2023-01-24T13:42:27.547Z,3.57
2023-01-24T13:44:56.780Z,3.58
2023-01-24T13:47:34.231Z,3.55
2023-01-24T13:50:20.466Z,3.51
2023-01-24T13:52:52.698Z,3.53
2023-01-24T13:55:57.032Z,3.53
2023-01-24T13:58:26.778Z,3.52
2023-01-24T14:00:57.109Z,3.53
2023-01-24T14:03:30.864Z,3.53
2023-01-24T14:06:08.581Z,3.50
2023-01-24T14:08:45.280Z,3.49
2023-01-24T14:11:25.545Z,3.49
2023-01-24T14:14:02.540Z,3.49
2023-01-24T14:17:05.666Z,3.51
2023-01-24T14:19:38.686Z,3.49
2023-01-24T14:22:21.524Z,3.49
2023-01-24T14:25:04.799Z,3.49
2023-01-24T14:27:37.350Z,3.48
2023-01-24T14:30:28.036Z,3.47
2023-01-24T14:33:00.809Z,3.45
2023-01-24T14:35:33.920Z,3.41
2023-01-24T14:38:14.771Z,3.35
2023-01-24T14:40:45.556Z,3.31
2023-01-24T14:43:14.032Z,3.27
2023-01-24T14:45:42.992Z,3.26
2023-01-24T14:48:21.385Z,3.24
2023-01-24T14:50:57.730Z,3.21
2023-01-24T14:53:28.615Z,3.19
2023-01-24T14:56:01.862Z,3.18
2023-01-24T14:58:30.533Z,3.15
2023-01-24T15:01:00.394Z,3.14
2023-01-24T15:03:30.495Z,3.12
2023-01-24T15:06:03.537Z,3.10
2023-01-24T15:08:41.704Z,3.09
2023-01-24T15:11:29.455Z,3.08
2023-01-24T15:14:02.781Z,3.07
2023-01-24T15:16:36.194Z,3.05
2023-01-24T15:19:17.327Z,3.04
2023-01-24T15:21:47.960Z,3.04
2023-01-24T15:24:23.699Z,3.05
2023-01-24T15:26:52.095Z,3.04
2023-01-24T15:29:43.381Z,3.03
2023-01-24T15:32:30.725Z,3.03
2023-01-24T15:35:28.589Z,3.03
2023-01-24T15:38:24.427Z,3.03
2023-01-24T15:41:15.478Z,3.02
2023-01-24T15:43:50.546Z,3.03
2023-01-24T15:46:40.919Z,3.02
2023-01-24T15:49:33.616Z,3.03
2023-01-24T15:52:06.537Z,3.02
2023-01-24T15:54:35.000Z,3.01
2023-01-24T15:57:07.239Z,3.00
2023-01-24T15:59:35.431Z,3.00
2023-01-24T16:02:03.844Z,3.00
2023-01-24T16:04:35.081Z,3.00
2023-01-24T16:07:05.734Z,2.98
2023-01-24T16:09:56.717Z,2.97
2023-01-24T16:12:48.377Z,2.97
2023-01-24T16:15:40.504Z,2.97
2023-01-24T16:21:14.956Z,2.96
2023-01-24T16:23:43.450Z,2.95
2023-01-24T16:26:22.243Z,2.96
2023-01-24T16:28:51.915Z,2.97
2023-01-24T16:31:20.963Z,2.95
2023-01-24T16:33:53.631Z,2.97
2023-01-24T16:36:22.726Z,2.98
2023-01-24T16:38:53.329Z,2.98
2023-01-24T16:41:26.820Z,2.98
2023-01-24T16:43:57.976Z,2.98
2023-01-24T16:46:27.556Z,2.98
2023-01-24T16:49:01.219Z,2.96
2023-01-24T16:51:29.356Z,2.95
2023-01-24T16:54:04.835Z,2.94
2023-01-24T16:56:36.499Z,2.93
2023-01-24T16:59:04.177Z,2.93
2023-01-24T17:01:40.716Z,2.93
2023-01-24T17:04:19.335Z,2.92
2023-01-24T17:06:46.135Z,2.88
2023-01-24T17:09:15.669Z,2.83
2023-01-24T17:11:44.863Z,2.79
2023-01-24T17:14:35.258Z,2.73
2023-01-24T17:17:05.920Z,2.69
2023-01-24T17:19:36.815Z,2.67
2023-01-24T17:22:05.152Z,2.65
2023-01-24T17:24:33.016Z,2.64
2023-01-24T17:27:00.977Z,2.63
2023-01-24T17:29:29.174Z,2.61
2023-01-24T17:31:57.852Z,2.62
2023-01-24T17:34:26.444Z,2.63
2023-01-24T17:36:54.504Z,2.62
2023-01-24T17:39:25.364Z,2.61
2023-01-24T17:41:53.051Z,2.62
2023-01-24T17:44:21.750Z,2.64
2023-01-24T17:46:50.429Z,2.66
2023-01-24T17:49:20.510Z,2.67
2023-01-24T17:51:49.579Z,2.67
2023-01-24T17:54:20.723Z,2.66
2023-01-24T17:56:50.390Z,2.67
2023-01-24T17:59:19.583Z,2.67
2023-01-24T18:01:52.273Z,2.67
2023-01-24T18:04:23.704Z,2.67
2023-01-24T18:06:51.698Z,2.67
2023-01-24T18:09:21.063Z,2.66
2023-01-24T18:11:48.685Z,2.67
2023-01-24T18:14:17.578Z,2.67
2023-01-24T18:16:49.218Z,2.68
2023-01-24T18:19:16.997Z,2.69
2023-01-24T18:21:44.652Z,2.68
2023-01-24T18:24:20.627Z,2.68
2023-01-24T18:27:30.410Z,2.64
2023-01-24T18:30:45.282Z,2.60
2023-01-24T18:33:48.488Z,2.59
2023-01-24T18:36:47.257Z,2.60
2023-01-24T18:39:45.933Z,2.60
2023-01-24T18:42:34.838Z,2.58
2023-01-24T18:45:51.770Z,2.56
2023-01-24T18:48:57.666Z,2.53
2023-01-24T18:51:59.136Z,2.51
2023-01-24T18:58:34.649Z,2.43
2023-01-24T19:01:47.592Z,2.42
2023-01-24T19:04:45.756Z,2.40
2023-01-24T19:07:50.197Z,2.40
2023-01-24T19:10:59.902Z,2.41
2023-01-24T19:13:46.349Z,2.40
2023-01-24T19:17:05.273Z,2.40
2023-01-24T19:19:58.692Z,2.37
2023-01-24T19:26:17.159Z,2.38
2023-01-24T19:29:17.642Z,2.40
2023-01-24T19:31:55.898Z,2.41
2023-01-24T19:35:14.622Z,2.42
2023-01-24T19:38:07.964Z,2.42
2023-01-24T19:41:26.910Z,2.42
2023-01-24T19:44:34.260Z,2.44
2023-01-24T19:47:53.704Z,2.44
2023-01-24T19:50:54.442Z,2.45
2023-01-24T19:54:09.015Z,2.48
2023-01-24T19:57:07.477Z,2.49
2023-01-24T20:00:10.634Z,2.49
2023-01-24T20:03:20.626Z,2.50
2023-01-24T20:06:40.615Z,2.48
2023-01-24T20:10:06.329Z,2.48
2023-01-24T20:13:01.732Z,2.49
2023-01-24T20:15:37.636Z,2.50
2023-01-24T20:18:36.416Z,2.50
2023-01-24T20:21:29.626Z,2.50
2023-01-24T20:24:34.619Z,2.49
2023-01-24T20:27:29.620Z,2.50
2023-01-24T20:30:38.982Z,2.51
2023-01-24T20:33:42.723Z,2.52
2023-01-24T20:36:44.848Z,2.52
2023-01-24T20:39:39.291Z,2.51
2023-01-24T20:42:42.816Z,2.51
2023-01-24T20:45:51.606Z,2.52
2023-01-24T20:49:02.514Z,2.52
2023-01-24T20:52:09.670Z,2.52
2023-01-24T20:55:09.473Z,2.51
2023-01-24T20:58:02.009Z,2.50
2023-01-24T21:01:01.694Z,2.50
2023-01-24T21:03:49.196Z,2.50
2023-01-24T21:06:50.283Z,2.49
2023-01-24T21:10:14.034Z,2.50
2023-01-24T21:13:10.855Z,2.51
2023-01-24T21:16:11.634Z,2.50
2023-01-24T21:19:11.308Z,2.50
2023-01-24T21:22:15.680Z,2.50
2023-01-24T21:24:52.796Z,2.50
2023-01-24T21:27:43.857Z,2.50
2023-01-24T21:30:20.216Z,2.50
2023-01-24T21:33:13.569Z,2.49
2023-01-24T21:36:10.728Z,2.49
2023-01-24T21:39:17.702Z,2.49
2023-01-24T21:42:22.223Z,2.50
2023-01-24T21:45:30.745Z,2.51
2023-01-24T21:55:31.761Z,2.53
2023-01-24T21:58:31.981Z,2.53
2023-01-24T22:01:36.814Z,2.53
2023-01-24T22:05:10.373Z,2.54
2023-01-24T22:11:01.456Z,2.52
2023-01-24T22:13:59.436Z,2.52
2023-01-24T22:17:01.958Z,2.53
2023-01-24T22:19:41.217Z,2.53
2023-01-24T22:22:49.040Z,2.53
2023-01-24T22:26:06.518Z,2.52
2023-01-24T22:29:03.435Z,2.51
2023-01-24T22:31:58.626Z,2.50
2023-01-24T22:34:48.776Z,2.48
2023-01-24T22:37:42.313Z,2.49
2023-01-24T22:40:22.093Z,2.47
2023-01-24T22:43:12.865Z,2.47
2023-01-24T22:46:07.767Z,2.47
2023-01-24T22:49:01.404Z,2.47
2023-01-24T22:51:52.594Z,2.48
2023-01-24T22:54:55.363Z,2.49
2023-01-24T22:57:49.407Z,2.48
2023-01-24T23:00:31.705Z,2.48
2023-01-24T23:03:23.765Z,2.48
2023-01-24T23:06:04.078Z,2.46
2023-01-24T23:08:46.189Z,2.46
2023-01-24T23:11:24.066Z,2.45
2023-01-24T23:14:29.614Z,2.45
2023-01-24T23:17:07.598Z,2.45
2023-01-24T23:20:15.350Z,2.44
2023-01-24T23:22:52.110Z,2.44
2023-01-24T23:25:49.533Z,2.45
2023-01-24T23:28:53.854Z,2.45
2023-01-24T23:31:27.356Z,2.43
2023-01-24T23:34:03.114Z,2.42
2023-01-24T23:36:38.054Z,2.43
2023-01-24T23:39:40.769Z,2.42
2023-01-24T23:42:39.232Z,2.41
2023-01-24T23:45:28.935Z,2.43
2023-01-24T23:48:16.379Z,2.41
2023-01-24T23:51:10.483Z,2.41
2023-01-24T23:53:55.853Z,2.41
2023-01-24T23:56:48.422Z,2.43
2023-01-24T23:59:39.587Z,2.45
